sensor_id;sensor_type;location;lat;lon;timestamp;P1;durP1;ratioP1;P2;durP2;ratioP2
9522;SDS011;63165;43.016;25.784;2023-02-02T00:02:11;27.25;;;7.82;;
9522;SDS011;63165;43.016;25.784;2023-02-02T00:05:03;18.70;;;6.55;;
9522;SDS011;63165;43.016;25.784;2023-02-02T00:07:52;21.25;;;6.97;;
9522;SDS011;63165;43.016;25.784;2023-02-02T00:13:46;45.92;;;15.77;;
9522;SDS011;63165;43.016;25.784;2023-02-02T00:16:36;30.42;;;9.15;;
9522;SDS011;63165;43.016;25.784;2023-02-02T00:19:28;17.17;;;7.10;;
9522;SDS011;63165;43.016;25.784;2023-02-02T00:22:30;24.25;;;6.93;;
9522;SDS011;63165;43.016;25.784;2023-02-02T00:25:50;15.98;;;6.07;;
9522;SDS011;63165;43.016;25.784;2023-02-02T00:31:45;15.40;;;5.40;;
9522;SDS011;63165;43.016;25.784;2023-02-02T00:34:47;188.23;;;55.17;;
9522;SDS011;63165;43.016;25.784;2023-02-02T00:37:31;81.57;;;26.05;;
9522;SDS011;63165;43.016;25.784;2023-02-02T00:40:24;188.75;;;55.92;;
9522;SDS011;63165;43.016;25.784;2023-02-02T00:43:24;36.80;;;12.02;;
9522;SDS011;63165;43.016;25.784;2023-02-02T00:46:41;14.48;;;5.03;;
9522;SDS011;63165;43.016;25.784;2023-02-02T00:49:13;13.07;;;4.40;;
9522;SDS011;63165;43.016;25.784;2023-02-02T00:52:06;13.00;;;4.28;;
9522;SDS011;63165;43.016;25.784;2023-02-02T00:58:18;50.47;;;16.00;;
9522;SDS011;63165;43.016;25.784;2023-02-02T01:11:32;18.95;;;6.13;;
9522;SDS011;63165;43.016;25.784;2023-02-02T01:13:59;18.45;;;5.00;;
9522;SDS011;63165;43.016;25.784;2023-02-02T01:16:26;12.40;;;4.45;;
9522;SDS011;63165;43.016;25.784;2023-02-02T01:18:54;11.43;;;4.00;;
9522;SDS011;63165;43.016;25.784;2023-02-02T01:21:21;13.82;;;3.75;;
9522;SDS011;63165;43.016;25.784;2023-02-02T01:23:49;13.40;;;4.20;;
9522;SDS011;63165;43.016;25.784;2023-02-02T01:26:16;12.52;;;3.75;;
9522;SDS011;63165;43.016;25.784;2023-02-02T01:28:45;10.25;;;3.15;;
9522;SDS011;63165;43.016;25.784;2023-02-02T01:31:13;9.60;;;3.65;;
9522;SDS011;63165;43.016;25.784;2023-02-02T01:33:42;15.65;;;5.40;;
9522;SDS011;63165;43.016;25.784;2023-02-02T01:36:11;11.25;;;4.13;;
9522;SDS011;63165;43.016;25.784;2023-02-02T01:38:40;9.93;;;3.92;;
9522;SDS011;63165;43.016;25.784;2023-02-02T01:41:09;10.98;;;3.53;;
9522;SDS011;63165;43.016;25.784;2023-02-02T01:43:50;14.50;;;4.35;;
9522;SDS011;63165;43.016;25.784;2023-02-02T01:46:23;8.93;;;3.88;;
9522;SDS011;63165;43.016;25.784;2023-02-02T01:48:54;13.27;;;4.03;;
9522;SDS011;63165;43.016;25.784;2023-02-02T01:51:28;11.75;;;3.75;;
9522;SDS011;63165;43.016;25.784;2023-02-02T01:53:58;26.60;;;8.07;;
9522;SDS011;63165;43.016;25.784;2023-02-02T01:56:27;45.20;;;16.05;;
9522;SDS011;63165;43.016;25.784;2023-02-02T01:58:58;162.43;;;38.78;;
9522;SDS011;63165;43.016;25.784;2023-02-02T02:01:26;72.95;;;21.35;;
9522;SDS011;63165;43.016;25.784;2023-02-02T02:03:54;57.67;;;19.10;;
9522;SDS011;63165;43.016;25.784;2023-02-02T02:06:21;60.83;;;18.80;;
9522;SDS011;63165;43.016;25.784;2023-02-02T02:08:52;41.65;;;13.05;;
9522;SDS011;63165;43.016;25.784;2023-02-02T02:11:22;38.83;;;11.85;;
9522;SDS011;63165;43.016;25.784;2023-02-02T02:13:50;67.28;;;20.55;;
9522;SDS011;63165;43.016;25.784;2023-02-02T02:16:41;83.78;;;26.52;;
9522;SDS011;63165;43.016;25.784;2023-02-02T02:19:24;74.38;;;21.35;;
9522;SDS011;63165;43.016;25.784;2023-02-02T02:22:38;41.05;;;12.57;;
9522;SDS011;63165;43.016;25.784;2023-02-02T02:28:50;20.42;;;7.53;;
9522;SDS011;63165;43.016;25.784;2023-02-02T02:31:51;17.08;;;5.70;;
9522;SDS011;63165;43.016;25.784;2023-02-02T02:34:34;16.38;;;5.63;;
9522;SDS011;63165;43.016;25.784;2023-02-02T02:37:14;22.25;;;6.60;;
9522;SDS011;63165;43.016;25.784;2023-02-02T02:39:49;23.13;;;7.10;;
9522;SDS011;63165;43.016;25.784;2023-02-02T02:42:24;21.75;;;7.65;;
9522;SDS011;63165;43.016;25.784;2023-02-02T02:44:55;25.92;;;7.93;;
9522;SDS011;63165;43.016;25.784;2023-02-02T02:47:30;23.08;;;8.45;;
9522;SDS011;63165;43.016;25.784;2023-02-02T02:49:57;18.98;;;7.15;;
9522;SDS011;63165;43.016;25.784;2023-02-02T02:52:25;19.25;;;6.97;;
9522;SDS011;63165;43.016;25.784;2023-02-02T02:54:52;19.23;;;6.50;;
9522;SDS011;63165;43.016;25.784;2023-02-02T02:57:25;13.98;;;5.78;;
9522;SDS011;63165;43.016;25.784;2023-02-02T03:00:17;18.05;;;5.00;;
9522;SDS011;63165;43.016;25.784;2023-02-02T03:02:59;23.73;;;4.97;;
9522;SDS011;63165;43.016;25.784;2023-02-02T03:05:36;10.52;;;3.85;;
9522;SDS011;63165;43.016;25.784;2023-02-02T03:08:12;9.77;;;3.85;;
9522;SDS011;63165;43.016;25.784;2023-02-02T03:10:46;14.95;;;4.68;;
9522;SDS011;63165;43.016;25.784;2023-02-02T03:13:13;32.88;;;12.98;;
9522;SDS011;63165;43.016;25.784;2023-02-02T03:15:42;47.10;;;20.42;;
9522;SDS011;63165;43.016;25.784;2023-02-02T03:18:12;36.10;;;14.73;;
9522;SDS011;63165;43.016;25.784;2023-02-02T03:20:42;31.30;;;13.05;;
9522;SDS011;63165;43.016;25.784;2023-02-02T03:23:10;33.38;;;12.40;;
9522;SDS011;63165;43.016;25.784;2023-02-02T03:25:38;25.85;;;10.10;;
9522;SDS011;63165;43.016;25.784;2023-02-02T03:28:06;32.28;;;10.85;;
9522;SDS011;63165;43.016;25.784;2023-02-02T03:30:33;24.95;;;10.07;;
9522;SDS011;63165;43.016;25.784;2023-02-02T03:33:01;25.08;;;9.80;;
9522;SDS011;63165;43.016;25.784;2023-02-02T03:35:30;22.52;;;8.55;;
9522;SDS011;63165;43.016;25.784;2023-02-02T03:37:57;17.70;;;6.78;;
9522;SDS011;63165;43.016;25.784;2023-02-02T03:40:25;17.15;;;6.95;;
9522;SDS011;63165;43.016;25.784;2023-02-02T03:42:53;22.25;;;7.05;;
9522;SDS011;63165;43.016;25.784;2023-02-02T03:45:21;18.15;;;7.18;;
9522;SDS011;63165;43.016;25.784;2023-02-02T03:47:48;22.23;;;8.20;;
9522;SDS011;63165;43.016;25.784;2023-02-02T03:50:16;24.83;;;10.02;;
9522;SDS011;63165;43.016;25.784;2023-02-02T03:52:44;27.83;;;10.05;;
9522;SDS011;63165;43.016;25.784;2023-02-02T03:55:12;22.92;;;7.82;;
9522;SDS011;63165;43.016;25.784;2023-02-02T03:57:39;48.53;;;16.42;;
9522;SDS011;63165;43.016;25.784;2023-02-02T04:00:07;77.70;;;26.95;;
9522;SDS011;63165;43.016;25.784;2023-02-02T04:02:35;67.07;;;22.08;;
9522;SDS011;63165;43.016;25.784;2023-02-02T04:05:02;57.63;;;18.65;;
9522;SDS011;63165;43.016;25.784;2023-02-02T04:07:30;62.35;;;20.52;;
9522;SDS011;63165;43.016;25.784;2023-02-02T04:09:59;49.63;;;18.95;;
9522;SDS011;63165;43.016;25.784;2023-02-02T04:12:26;59.35;;;19.52;;
9522;SDS011;63165;43.016;25.784;2023-02-02T04:14:54;34.88;;;11.25;;
9522;SDS011;63165;43.016;25.784;2023-02-02T04:17:21;16.20;;;6.45;;
9522;SDS011;63165;43.016;25.784;2023-02-02T04:19:48;24.30;;;7.03;;
9522;SDS011;63165;43.016;25.784;2023-02-02T04:22:17;17.73;;;6.07;;
9522;SDS011;63165;43.016;25.784;2023-02-02T04:24:44;25.77;;;7.95;;
9522;SDS011;63165;43.016;25.784;2023-02-02T04:27:14;20.63;;;7.10;;
9522;SDS011;63165;43.016;25.784;2023-02-02T04:29:42;19.60;;;6.15;;
9522;SDS011;63165;43.016;25.784;2023-02-02T04:32:09;29.02;;;9.05;;
9522;SDS011;63165;43.016;25.784;2023-02-02T04:34:36;22.85;;;8.90;;
9522;SDS011;63165;43.016;25.784;2023-02-02T04:37:04;40.00;;;14.18;;
9522;SDS011;63165;43.016;25.784;2023-02-02T04:39:31;55.33;;;16.75;;
9522;SDS011;63165;43.016;25.784;2023-02-02T04:41:58;51.72;;;17.85;;
9522;SDS011;63165;43.016;25.784;2023-02-02T04:44:27;39.10;;;14.45;;
9522;SDS011;63165;43.016;25.784;2023-02-02T04:46:54;83.15;;;23.73;;
9522;SDS011;63165;43.016;25.784;2023-02-02T04:49:22;91.10;;;27.80;;
9522;SDS011;63165;43.016;25.784;2023-02-02T04:51:49;63.75;;;18.98;;
9522;SDS011;63165;43.016;25.784;2023-02-02T04:54:16;50.17;;;16.15;;
9522;SDS011;63165;43.016;25.784;2023-02-02T04:56:44;49.10;;;13.85;;
9522;SDS011;63165;43.016;25.784;2023-02-02T04:59:11;39.97;;;12.52;;
9522;SDS011;63165;43.016;25.784;2023-02-02T05:01:40;48.70;;;14.93;;
9522;SDS011;63165;43.016;25.784;2023-02-02T05:04:09;41.85;;;13.20;;
9522;SDS011;63165;43.016;25.784;2023-02-02T05:06:36;35.75;;;11.45;;
9522;SDS011;63165;43.016;25.784;2023-02-02T05:09:03;93.38;;;30.13;;
9522;SDS011;63165;43.016;25.784;2023-02-02T05:11:30;100.55;;;30.05;;
9522;SDS011;63165;43.016;25.784;2023-02-02T05:13:58;96.93;;;29.52;;
9522;SDS011;63165;43.016;25.784;2023-02-02T05:16:25;39.95;;;13.93;;
9522;SDS011;63165;43.016;25.784;2023-02-02T05:18:54;23.25;;;7.55;;
9522;SDS011;63165;43.016;25.784;2023-02-02T05:21:23;13.32;;;5.15;;
9522;SDS011;63165;43.016;25.784;2023-02-02T05:23:51;15.45;;;5.78;;
9522;SDS011;63165;43.016;25.784;2023-02-02T05:26:19;14.25;;;4.65;;
9522;SDS011;63165;43.016;25.784;2023-02-02T05:28:48;11.95;;;4.30;;
9522;SDS011;63165;43.016;25.784;2023-02-02T05:31:16;21.85;;;9.02;;
9522;SDS011;63165;43.016;25.784;2023-02-02T05:33:43;16.85;;;6.43;;
9522;SDS011;63165;43.016;25.784;2023-02-02T05:36:12;53.08;;;13.95;;
9522;SDS011;63165;43.016;25.784;2023-02-02T05:38:40;41.10;;;12.32;;
9522;SDS011;63165;43.016;25.784;2023-02-02T05:41:07;51.30;;;13.55;;
9522;SDS011;63165;43.016;25.784;2023-02-02T05:43:34;33.38;;;9.20;;
9522;SDS011;63165;43.016;25.784;2023-02-02T05:46:01;24.30;;;7.57;;
9522;SDS011;63165;43.016;25.784;2023-02-02T05:48:29;21.98;;;8.90;;
9522;SDS011;63165;43.016;25.784;2023-02-02T05:50:57;23.83;;;8.80;;
9522;SDS011;63165;43.016;25.784;2023-02-02T05:53:29;25.92;;;9.15;;
9522;SDS011;63165;43.016;25.784;2023-02-02T05:55:57;26.20;;;8.40;;
9522;SDS011;63165;43.016;25.784;2023-02-02T05:58:24;23.10;;;8.57;;
9522;SDS011;63165;43.016;25.784;2023-02-02T06:00:52;18.05;;;7.60;;
9522;SDS011;63165;43.016;25.784;2023-02-02T06:03:19;25.17;;;9.55;;
9522;SDS011;63165;43.016;25.784;2023-02-02T06:05:46;37.53;;;10.50;;
9522;SDS011;63165;43.016;25.784;2023-02-02T06:08:14;33.17;;;10.10;;
9522;SDS011;63165;43.016;25.784;2023-02-02T06:10:42;19.17;;;7.45;;
9522;SDS011;63165;43.016;25.784;2023-02-02T06:13:10;17.27;;;7.32;;
9522;SDS011;63165;43.016;25.784;2023-02-02T06:15:37;31.83;;;13.15;;
9522;SDS011;63165;43.016;25.784;2023-02-02T06:18:06;20.08;;;9.52;;
9522;SDS011;63165;43.016;25.784;2023-02-02T06:20:33;27.00;;;10.30;;
9522;SDS011;63165;43.016;25.784;2023-02-02T06:23:01;38.25;;;15.82;;
9522;SDS011;63165;43.016;25.784;2023-02-02T06:25:28;33.30;;;13.30;;
9522;SDS011;63165;43.016;25.784;2023-02-02T06:27:57;31.02;;;12.77;;
9522;SDS011;63165;43.016;25.784;2023-02-02T06:30:25;42.53;;;14.50;;
9522;SDS011;63165;43.016;25.784;2023-02-02T06:32:53;48.85;;;16.60;;
9522;SDS011;63165;43.016;25.784;2023-02-02T06:35:20;40.28;;;16.10;;
9522;SDS011;63165;43.016;25.784;2023-02-02T06:37:47;46.83;;;14.70;;
9522;SDS011;63165;43.016;25.784;2023-02-02T06:40:15;44.83;;;13.60;;
9522;SDS011;63165;43.016;25.784;2023-02-02T06:42:43;45.90;;;18.08;;
9522;SDS011;63165;43.016;25.784;2023-02-02T06:45:11;52.65;;;21.23;;
9522;SDS011;63165;43.016;25.784;2023-02-02T06:47:39;52.60;;;18.55;;
9522;SDS011;63165;43.016;25.784;2023-02-02T06:50:06;51.75;;;16.13;;
9522;SDS011;63165;43.016;25.784;2023-02-02T06:52:34;71.28;;;23.08;;
9522;SDS011;63165;43.016;25.784;2023-02-02T06:55:02;81.85;;;23.90;;
9522;SDS011;63165;43.016;25.784;2023-02-02T06:57:29;114.55;;;25.38;;
9522;SDS011;63165;43.016;25.784;2023-02-02T06:59:56;95.43;;;27.48;;
9522;SDS011;63165;43.016;25.784;2023-02-02T07:02:25;108.00;;;30.48;;
9522;SDS011;63165;43.016;25.784;2023-02-02T07:04:52;131.48;;;35.30;;
9522;SDS011;63165;43.016;25.784;2023-02-02T07:07:20;455.65;;;112.55;;
9522;SDS011;63165;43.016;25.784;2023-02-02T07:09:47;507.20;;;129.98;;
9522;SDS011;63165;43.016;25.784;2023-02-02T07:12:14;469.10;;;123.97;;
9522;SDS011;63165;43.016;25.784;2023-02-02T07:14:43;487.23;;;131.05;;
9522;SDS011;63165;43.016;25.784;2023-02-02T07:17:10;589.15;;;164.90;;
9522;SDS011;63165;43.016;25.784;2023-02-02T07:19:39;611.47;;;168.55;;
9522;SDS011;63165;43.016;25.784;2023-02-02T07:22:06;368.52;;;108.85;;
9522;SDS011;63165;43.016;25.784;2023-02-02T07:24:34;234.40;;;65.38;;
9522;SDS011;63165;43.016;25.784;2023-02-02T07:27:02;102.78;;;30.45;;
9522;SDS011;63165;43.016;25.784;2023-02-02T07:29:30;96.60;;;29.13;;
9522;SDS011;63165;43.016;25.784;2023-02-02T07:31:57;45.60;;;14.82;;
9522;SDS011;63165;43.016;25.784;2023-02-02T07:34:25;44.42;;;13.95;;
9522;SDS011;63165;43.016;25.784;2023-02-02T07:36:55;68.18;;;21.00;;
9522;SDS011;63165;43.016;25.784;2023-02-02T07:39:23;45.08;;;14.55;;
9522;SDS011;63165;43.016;25.784;2023-02-02T07:41:51;25.17;;;9.05;;
9522;SDS011;63165;43.016;25.784;2023-02-02T07:44:18;25.08;;;8.35;;
9522;SDS011;63165;43.016;25.784;2023-02-02T07:46:46;29.05;;;9.73;;
9522;SDS011;63165;43.016;25.784;2023-02-02T07:49:14;19.25;;;6.38;;
9522;SDS011;63165;43.016;25.784;2023-02-02T07:51:43;22.45;;;7.70;;
9522;SDS011;63165;43.016;25.784;2023-02-02T07:54:13;25.75;;;7.68;;
9522;SDS011;63165;43.016;25.784;2023-02-02T07:56:41;20.60;;;7.35;;
9522;SDS011;63165;43.016;25.784;2023-02-02T07:59:09;32.40;;;10.35;;
9522;SDS011;63165;43.016;25.784;2023-02-02T08:01:36;14.20;;;5.05;;
9522;SDS011;63165;43.016;25.784;2023-02-02T08:04:04;6.40;;;3.35;;
9522;SDS011;63165;43.016;25.784;2023-02-02T08:06:32;12.02;;;4.65;;
9522;SDS011;63165;43.016;25.784;2023-02-02T08:09:01;11.35;;;4.60;;
9522;SDS011;63165;43.016;25.784;2023-02-02T08:11:31;14.13;;;2.53;;
9522;SDS011;63165;43.016;25.784;2023-02-02T08:13:59;5.55;;;2.15;;
9522;SDS011;63165;43.016;25.784;2023-02-02T08:16:28;7.20;;;2.83;;
9522;SDS011;63165;43.016;25.784;2023-02-02T08:18:56;6.90;;;2.70;;
9522;SDS011;63165;43.016;25.784;2023-02-02T08:21:24;8.98;;;3.28;;
9522;SDS011;63165;43.016;25.784;2023-02-02T08:23:52;4.15;;;2.33;;
9522;SDS011;63165;43.016;25.784;2023-02-02T08:26:21;5.78;;;2.97;;
9522;SDS011;63165;43.016;25.784;2023-02-02T08:28:52;7.22;;;2.33;;
9522;SDS011;63165;43.016;25.784;2023-02-02T08:31:21;3.97;;;1.75;;
9522;SDS011;63165;43.016;25.784;2023-02-02T08:33:51;6.25;;;2.50;;
9522;SDS011;63165;43.016;25.784;2023-02-02T08:36:20;7.32;;;2.53;;
9522;SDS011;63165;43.016;25.784;2023-02-02T08:38:49;4.63;;;2.45;;
9522;SDS011;63165;43.016;25.784;2023-02-02T08:41:18;6.43;;;2.40;;
9522;SDS011;63165;43.016;25.784;2023-02-02T08:43:46;4.40;;;2.30;;
9522;SDS011;63165;43.016;25.784;2023-02-02T08:46:16;3.97;;;1.90;;
9522;SDS011;63165;43.016;25.784;2023-02-02T08:48:45;8.65;;;2.55;;
9522;SDS011;63165;43.016;25.784;2023-02-02T08:51:13;4.40;;;2.35;;
9522;SDS011;63165;43.016;25.784;2023-02-02T08:53:43;8.30;;;3.42;;
9522;SDS011;63165;43.016;25.784;2023-02-02T08:56:12;8.10;;;3.15;;
9522;SDS011;63165;43.016;25.784;2023-02-02T08:58:43;4.88;;;2.05;;
9522;SDS011;63165;43.016;25.784;2023-02-02T09:01:13;9.57;;;3.20;;
9522;SDS011;63165;43.016;25.784;2023-02-02T09:03:43;8.52;;;3.00;;
9522;SDS011;63165;43.016;25.784;2023-02-02T09:06:12;6.22;;;2.20;;
9522;SDS011;63165;43.016;25.784;2023-02-02T09:08:40;11.13;;;3.10;;
9522;SDS011;63165;43.016;25.784;2023-02-02T09:11:09;8.02;;;2.83;;
9522;SDS011;63165;43.016;25.784;2023-02-02T09:13:38;15.13;;;6.22;;
9522;SDS011;63165;43.016;25.784;2023-02-02T09:16:07;11.98;;;4.30;;
9522;SDS011;63165;43.016;25.784;2023-02-02T09:18:38;5.63;;;2.88;;
9522;SDS011;63165;43.016;25.784;2023-02-02T09:21:07;5.18;;;1.88;;
9522;SDS011;63165;43.016;25.784;2023-02-02T09:23:36;4.95;;;2.13;;
9522;SDS011;63165;43.016;25.784;2023-02-02T09:26:09;3.92;;;1.70;;
9522;SDS011;63165;43.016;25.784;2023-02-02T09:28:38;6.25;;;2.42;;
9522;SDS011;63165;43.016;25.784;2023-02-02T09:31:09;8.98;;;2.30;;
9522;SDS011;63165;43.016;25.784;2023-02-02T09:33:39;6.80;;;2.20;;
9522;SDS011;63165;43.016;25.784;2023-02-02T09:36:08;5.07;;;1.75;;
9522;SDS011;63165;43.016;25.784;2023-02-02T09:38:37;13.45;;;4.10;;
9522;SDS011;63165;43.016;25.784;2023-02-02T09:41:11;23.30;;;9.05;;
9522;SDS011;63165;43.016;25.784;2023-02-02T09:43:53;30.98;;;12.02;;
9522;SDS011;63165;43.016;25.784;2023-02-02T09:46:32;11.95;;;4.53;;
9522;SDS011;63165;43.016;25.784;2023-02-02T09:49:14;7.30;;;3.72;;
9522;SDS011;63165;43.016;25.784;2023-02-02T09:51:48;13.43;;;4.40;;
9522;SDS011;63165;43.016;25.784;2023-02-02T09:54:22;5.60;;;2.78;;
9522;SDS011;63165;43.016;25.784;2023-02-02T09:56:59;10.68;;;3.75;;
9522;SDS011;63165;43.016;25.784;2023-02-02T09:59:30;5.10;;;1.80;;
9522;SDS011;63165;43.016;25.784;2023-02-02T10:02:02;4.95;;;1.85;;
9522;SDS011;63165;43.016;25.784;2023-02-02T10:04:37;9.40;;;1.90;;
9522;SDS011;63165;43.016;25.784;2023-02-02T10:07:07;3.67;;;1.83;;
9522;SDS011;63165;43.016;25.784;2023-02-02T10:09:38;6.95;;;2.30;;
9522;SDS011;63165;43.016;25.784;2023-02-02T10:14:45;5.20;;;2.47;;
9522;SDS011;63165;43.016;25.784;2023-02-02T10:17:24;8.32;;;3.53;;
9522;SDS011;63165;43.016;25.784;2023-02-02T10:20:04;8.98;;;2.72;;
9522;SDS011;63165;43.016;25.784;2023-02-02T10:22:41;3.78;;;1.83;;
9522;SDS011;63165;43.016;25.784;2023-02-02T10:25:11;3.63;;;1.70;;
9522;SDS011;63165;43.016;25.784;2023-02-02T10:27:40;10.48;;;3.38;;
9522;SDS011;63165;43.016;25.784;2023-02-02T10:30:33;12.38;;;5.28;;
9522;SDS011;63165;43.016;25.784;2023-02-02T10:33:07;5.18;;;1.98;;
9522;SDS011;63165;43.016;25.784;2023-02-02T10:35:43;6.72;;;2.85;;
9522;SDS011;63165;43.016;25.784;2023-02-02T10:38:19;6.80;;;2.30;;
9522;SDS011;63165;43.016;25.784;2023-02-02T10:40:55;6.03;;;2.28;;
9522;SDS011;63165;43.016;25.784;2023-02-02T10:46:19;23.42;;;6.78;;
9522;SDS011;63165;43.016;25.784;2023-02-02T10:48:50;4.90;;;1.52;;
9522;SDS011;63165;43.016;25.784;2023-02-02T10:51:28;3.75;;;1.40;;
9522;SDS011;63165;43.016;25.784;2023-02-02T10:53:56;3.22;;;1.42;;
9522;SDS011;63165;43.016;25.784;2023-02-02T10:56:30;3.50;;;1.40;;
9522;SDS011;63165;43.016;25.784;2023-02-02T10:59:04;7.18;;;1.90;;
9522;SDS011;63165;43.016;25.784;2023-02-02T11:01:37;8.68;;;2.45;;
9522;SDS011;63165;43.016;25.784;2023-02-02T11:04:05;3.95;;;1.50;;
9522;SDS011;63165;43.016;25.784;2023-02-02T11:06:50;3.63;;;1.30;;
9522;SDS011;63165;43.016;25.784;2023-02-02T11:09:19;5.65;;;1.50;;
9522;SDS011;63165;43.016;25.784;2023-02-02T11:11:49;4.03;;;1.30;;
9522;SDS011;63165;43.016;25.784;2023-02-02T11:14:23;3.30;;;1.50;;
9522;SDS011;63165;43.016;25.784;2023-02-02T11:17:02;10.50;;;3.85;;
9522;SDS011;63165;43.016;25.784;2023-02-02T11:19:31;4.93;;;1.73;;
9522;SDS011;63165;43.016;25.784;2023-02-02T11:22:01;3.13;;;1.75;;
9522;SDS011;63165;43.016;25.784;2023-02-02T11:24:30;4.93;;;1.65;;
9522;SDS011;63165;43.016;25.784;2023-02-02T11:27:02;5.78;;;2.25;;
9522;SDS011;63165;43.016;25.784;2023-02-02T11:29:40;7.53;;;1.60;;
9522;SDS011;63165;43.016;25.784;2023-02-02T11:37:53;3.58;;;1.40;;
9522;SDS011;63165;43.016;25.784;2023-02-02T11:40:27;6.03;;;1.52;;
9522;SDS011;63165;43.016;25.784;2023-02-02T11:42:57;10.93;;;3.88;;
9522;SDS011;63165;43.016;25.784;2023-02-02T11:45:28;1.52;;;1.17;;
9522;SDS011;63165;43.016;25.784;2023-02-02T11:48:00;2.83;;;1.35;;
9522;SDS011;63165;43.016;25.784;2023-02-02T11:50:32;7.70;;;2.90;;
9522;SDS011;63165;43.016;25.784;2023-02-02T11:53:02;2.30;;;1.30;;
9522;SDS011;63165;43.016;25.784;2023-02-02T11:55:30;12.25;;;1.75;;
9522;SDS011;63165;43.016;25.784;2023-02-02T12:00:56;28.40;;;9.65;;
9522;SDS011;63165;43.016;25.784;2023-02-02T12:03:26;15.52;;;5.82;;
9522;SDS011;63165;43.016;25.784;2023-02-02T12:05:56;89.30;;;28.67;;
9522;SDS011;63165;43.016;25.784;2023-02-02T12:08:27;42.03;;;14.65;;
9522;SDS011;63165;43.016;25.784;2023-02-02T12:10:56;30.30;;;11.13;;
9522;SDS011;63165;43.016;25.784;2023-02-02T12:13:31;18.27;;;7.07;;
9522;SDS011;63165;43.016;25.784;2023-02-02T12:16:10;8.35;;;3.85;;
9522;SDS011;63165;43.016;25.784;2023-02-02T12:18:54;14.18;;;6.50;;
9522;SDS011;63165;43.016;25.784;2023-02-02T12:21:37;12.90;;;5.28;;
9522;SDS011;63165;43.016;25.784;2023-02-02T12:26:57;5.60;;;2.30;;
9522;SDS011;63165;43.016;25.784;2023-02-02T12:29:39;5.35;;;2.17;;
9522;SDS011;63165;43.016;25.784;2023-02-02T12:32:23;6.82;;;2.63;;
9522;SDS011;63165;43.016;25.784;2023-02-02T12:35:10;6.07;;;2.40;;
9522;SDS011;63165;43.016;25.784;2023-02-02T12:37:53;4.43;;;2.25;;
9522;SDS011;63165;43.016;25.784;2023-02-02T12:40:37;9.77;;;2.40;;
9522;SDS011;63165;43.016;25.784;2023-02-02T12:43:22;7.40;;;2.40;;
9522;SDS011;63165;43.016;25.784;2023-02-02T12:46:02;6.53;;;2.13;;
9522;SDS011;63165;43.016;25.784;2023-02-02T12:48:53;17.20;;;2.60;;
9522;SDS011;63165;43.016;25.784;2023-02-02T12:51:41;28.48;;;8.65;;
9522;SDS011;63165;43.016;25.784;2023-02-02T12:54:29;10.52;;;3.30;;
9522;SDS011;63165;43.016;25.784;2023-02-02T12:57:13;9.02;;;3.75;;
9522;SDS011;63165;43.016;25.784;2023-02-02T12:59:59;8.77;;;3.40;;
9522;SDS011;63165;43.016;25.784;2023-02-02T13:02:39;11.82;;;4.82;;
9522;SDS011;63165;43.016;25.784;2023-02-02T13:05:23;6.70;;;3.40;;
9522;SDS011;63165;43.016;25.784;2023-02-02T13:08:04;8.55;;;3.40;;
9522;SDS011;63165;43.016;25.784;2023-02-02T13:10:36;5.28;;;2.63;;
9522;SDS011;63165;43.016;25.784;2023-02-02T13:13:08;8.50;;;3.10;;
9522;SDS011;63165;43.016;25.784;2023-02-02T13:15:41;6.82;;;2.25;;
9522;SDS011;63165;43.016;25.784;2023-02-02T13:18:12;9.85;;;3.08;;
9522;SDS011;63165;43.016;25.784;2023-02-02T13:20:44;5.70;;;2.63;;
9522;SDS011;63165;43.016;25.784;2023-02-02T13:23:16;6.05;;;2.47;;
9522;SDS011;63165;43.016;25.784;2023-02-02T13:25:48;6.47;;;2.83;;
9522;SDS011;63165;43.016;25.784;2023-02-02T13:28:29;4.60;;;2.10;;
9522;SDS011;63165;43.016;25.784;2023-02-02T13:31:02;10.77;;;2.90;;
9522;SDS011;63165;43.016;25.784;2023-02-02T13:33:36;8.13;;;2.80;;
9522;SDS011;63165;43.016;25.784;2023-02-02T13:36:05;6.47;;;2.20;;
9522;SDS011;63165;43.016;25.784;2023-02-02T13:38:40;6.63;;;2.58;;
9522;SDS011;63165;43.016;25.784;2023-02-02T13:41:10;16.08;;;5.60;;
9522;SDS011;63165;43.016;25.784;2023-02-02T13:43:41;7.45;;;3.17;;
9522;SDS011;63165;43.016;25.784;2023-02-02T13:46:22;5.38;;;2.67;;
9522;SDS011;63165;43.016;25.784;2023-02-02T13:48:57;8.35;;;3.15;;
9522;SDS011;63165;43.016;25.784;2023-02-02T13:51:43;17.70;;;7.82;;
9522;SDS011;63165;43.016;25.784;2023-02-02T13:57:38;17.13;;;7.18;;
9522;SDS011;63165;43.016;25.784;2023-02-02T14:00:24;13.15;;;5.10;;
9522;SDS011;63165;43.016;25.784;2023-02-02T14:02:55;9.05;;;3.67;;
9522;SDS011;63165;43.016;25.784;2023-02-02T14:05:27;11.95;;;4.35;;
9522;SDS011;63165;43.016;25.784;2023-02-02T14:07:59;7.22;;;2.72;;
9522;SDS011;63165;43.016;25.784;2023-02-02T14:10:31;4.40;;;2.38;;
9522;SDS011;63165;43.016;25.784;2023-02-02T14:13:06;6.80;;;3.22;;
9522;SDS011;63165;43.016;25.784;2023-02-02T14:15:56;5.78;;;2.67;;
9522;SDS011;63165;43.016;25.784;2023-02-02T14:24:37;6.78;;;2.20;;
9522;SDS011;63165;43.016;25.784;2023-02-02T14:30:18;6.20;;;1.80;;
9522;SDS011;63165;43.016;25.784;2023-02-02T14:32:49;2.50;;;1.60;;
9522;SDS011;63165;43.016;25.784;2023-02-02T14:38:38;3.58;;;1.48;;
9522;SDS011;63165;43.016;25.784;2023-02-02T14:41:20;4.65;;;1.90;;
9522;SDS011;63165;43.016;25.784;2023-02-02T14:44:14;5.82;;;1.70;;
9522;SDS011;63165;43.016;25.784;2023-02-02T14:46:43;2.45;;;1.30;;
9522;SDS011;63165;43.016;25.784;2023-02-02T14:49:15;2.53;;;1.40;;
9522;SDS011;63165;43.016;25.784;2023-02-02T14:51:49;5.43;;;1.77;;
9522;SDS011;63165;43.016;25.784;2023-02-02T14:54:21;2.38;;;1.40;;
9522;SDS011;63165;43.016;25.784;2023-02-02T14:56:54;2.70;;;1.60;;
9522;SDS011;63165;43.016;25.784;2023-02-02T14:59:26;4.03;;;1.97;;
9522;SDS011;63165;43.016;25.784;2023-02-02T15:02:02;2.53;;;1.73;;
9522;SDS011;63165;43.016;25.784;2023-02-02T15:04:41;2.75;;;1.33;;
9522;SDS011;63165;43.016;25.784;2023-02-02T15:13:18;2.15;;;1.20;;
9522;SDS011;63165;43.016;25.784;2023-02-02T15:15:48;2.42;;;1.30;;
9522;SDS011;63165;43.016;25.784;2023-02-02T15:18:24;2.20;;;1.33;;
9522;SDS011;63165;43.016;25.784;2023-02-02T15:20:59;5.40;;;2.38;;
9522;SDS011;63165;43.016;25.784;2023-02-02T15:23:32;2.92;;;1.80;;
9522;SDS011;63165;43.016;25.784;2023-02-02T15:26:05;2.53;;;1.50;;
9522;SDS011;63165;43.016;25.784;2023-02-02T15:28:40;3.17;;;1.90;;
9522;SDS011;63165;43.016;25.784;2023-02-02T15:31:13;3.28;;;1.48;;
9522;SDS011;63165;43.016;25.784;2023-02-02T15:33:46;7.40;;;3.67;;
9522;SDS011;63165;43.016;25.784;2023-02-02T15:36:18;5.35;;;2.10;;
9522;SDS011;63165;43.016;25.784;2023-02-02T15:38:50;3.67;;;1.77;;
9522;SDS011;63165;43.016;25.784;2023-02-02T15:41:20;1.92;;;1.50;;
9522;SDS011;63165;43.016;25.784;2023-02-02T15:43:49;5.72;;;2.50;;
9522;SDS011;63165;43.016;25.784;2023-02-02T15:46:18;6.43;;;2.55;;
9522;SDS011;63165;43.016;25.784;2023-02-02T15:51:37;19.80;;;6.57;;
9522;SDS011;63165;43.016;25.784;2023-02-02T15:54:19;5.53;;;2.97;;
9522;SDS011;63165;43.016;25.784;2023-02-02T15:56:48;10.65;;;3.75;;
9522;SDS011;63165;43.016;25.784;2023-02-02T15:59:16;4.82;;;2.50;;
9522;SDS011;63165;43.016;25.784;2023-02-02T16:01:46;16.25;;;5.82;;
9522;SDS011;63165;43.016;25.784;2023-02-02T16:04:16;30.73;;;11.18;;
9522;SDS011;63165;43.016;25.784;2023-02-02T16:06:49;22.67;;;8.95;;
9522;SDS011;63165;43.016;25.784;2023-02-02T16:09:20;13.45;;;5.18;;
9522;SDS011;63165;43.016;25.784;2023-02-02T16:11:50;8.88;;;3.85;;
9522;SDS011;63165;43.016;25.784;2023-02-02T16:14:17;14.30;;;6.85;;